sensor_id;sensor_type;location;lat;lon;timestamp;P1;durP1;ratioP1;P2;durP2;ratioP2
39098;SDS011;24844;52.380;7.018;2022-12-04T00:01:01;97.78;;;50.25;;
39098;SDS011;24844;52.380;7.018;2022-12-04T00:03:28;106.97;;;50.97;;
39098;SDS011;24844;52.380;7.018;2022-12-04T00:06:01;103.00;;;52.80;;
39098;SDS011;24844;52.380;7.018;2022-12-04T00:08:27;114.22;;;52.63;;
39098;SDS011;24844;52.380;7.018;2022-12-04T00:10:53;110.90;;;51.17;;
39098;SDS011;24844;52.380;7.018;2022-12-04T00:13:18;101.55;;;50.00;;
39098;SDS011;24844;52.380;7.018;2022-12-04T00:15:44;98.35;;;49.65;;
39098;SDS011;24844;52.380;7.018;2022-12-04T00:18:09;114.47;;;53.78;;
39098;SDS011;24844;52.380;7.018;2022-12-04T00:20:37;105.75;;;49.97;;
39098;SDS011;24844;52.380;7.018;2022-12-04T00:23:04;112.05;;;54.20;;
39098;SDS011;24844;52.380;7.018;2022-12-04T00:25:29;101.63;;;49.90;;
39098;SDS011;24844;52.380;7.018;2022-12-04T00:27:55;112.57;;;51.38;;
39098;SDS011;24844;52.380;7.018;2022-12-04T00:30:21;108.35;;;51.22;;
39098;SDS011;24844;52.380;7.018;2022-12-04T00:32:46;109.40;;;52.92;;
39098;SDS011;24844;52.380;7.018;2022-12-04T00:35:12;111.65;;;50.25;;
39098;SDS011;24844;52.380;7.018;2022-12-04T00:37:37;118.68;;;53.72;;
39098;SDS011;24844;52.380;7.018;2022-12-04T00:40:03;109.13;;;47.97;;
39098;SDS011;24844;52.380;7.018;2022-12-04T00:42:29;96.57;;;47.15;;
39098;SDS011;24844;52.380;7.018;2022-12-04T00:44:55;106.20;;;50.35;;
39098;SDS011;24844;52.380;7.018;2022-12-04T00:47:20;110.13;;;53.17;;
39098;SDS011;24844;52.380;7.018;2022-12-04T00:49:46;109.10;;;52.53;;
39098;SDS011;24844;52.380;7.018;2022-12-04T00:52:11;108.90;;;51.88;;
39098;SDS011;24844;52.380;7.018;2022-12-04T00:54:37;105.93;;;50.45;;
39098;SDS011;24844;52.380;7.018;2022-12-04T00:57:02;117.53;;;53.03;;
39098;SDS011;24844;52.380;7.018;2022-12-04T00:59:28;108.82;;;52.03;;
39098;SDS011;24844;52.380;7.018;2022-12-04T01:01:53;113.35;;;52.40;;
39098;SDS011;24844;52.380;7.018;2022-12-04T01:04:19;109.18;;;52.22;;
39098;SDS011;24844;52.380;7.018;2022-12-04T01:06:45;108.90;;;51.00;;
39098;SDS011;24844;52.380;7.018;2022-12-04T01:09:11;112.20;;;53.38;;
39098;SDS011;24844;52.380;7.018;2022-12-04T01:11:36;118.13;;;57.55;;
39098;SDS011;24844;52.380;7.018;2022-12-04T01:14:03;107.25;;;52.63;;
39098;SDS011;24844;52.380;7.018;2022-12-04T01:16:33;111.07;;;52.55;;
39098;SDS011;24844;52.380;7.018;2022-12-04T01:19:00;104.57;;;48.67;;
39098;SDS011;24844;52.380;7.018;2022-12-04T01:21:26;109.32;;;51.28;;
39098;SDS011;24844;52.380;7.018;2022-12-04T01:23:52;106.70;;;50.45;;
39098;SDS011;24844;52.380;7.018;2022-12-04T01:26:18;105.60;;;49.17;;
39098;SDS011;24844;52.380;7.018;2022-12-04T01:28:44;105.55;;;50.45;;
39098;SDS011;24844;52.380;7.018;2022-12-04T01:31:13;105.22;;;52.20;;
39098;SDS011;24844;52.380;7.018;2022-12-04T01:33:42;108.50;;;50.97;;
39098;SDS011;24844;52.380;7.018;2022-12-04T01:36:09;96.50;;;45.47;;
39098;SDS011;24844;52.380;7.018;2022-12-04T01:38:37;91.70;;;45.58;;
39098;SDS011;24844;52.380;7.018;2022-12-04T01:41:03;108.07;;;51.05;;
39098;SDS011;24844;52.380;7.018;2022-12-04T01:43:30;104.38;;;50.80;;
39098;SDS011;24844;52.380;7.018;2022-12-04T01:45:58;100.88;;;48.25;;
39098;SDS011;24844;52.380;7.018;2022-12-04T01:48:31;102.50;;;49.00;;
39098;SDS011;24844;52.380;7.018;2022-12-04T01:51:24;96.85;;;44.60;;
39098;SDS011;24844;52.380;7.018;2022-12-04T01:53:57;102.15;;;49.58;;
39098;SDS011;24844;52.380;7.018;2022-12-04T01:56:32;103.93;;;48.38;;
39098;SDS011;24844;52.380;7.018;2022-12-04T01:59:03;102.25;;;51.38;;
39098;SDS011;24844;52.380;7.018;2022-12-04T02:01:33;100.07;;;47.30;;
39098;SDS011;24844;52.380;7.018;2022-12-04T02:04:06;97.75;;;46.45;;
39098;SDS011;24844;52.380;7.018;2022-12-04T02:06:31;98.75;;;47.33;;
39098;SDS011;24844;52.380;7.018;2022-12-04T02:08:57;98.55;;;49.53;;
39098;SDS011;24844;52.380;7.018;2022-12-04T02:11:29;102.40;;;48.35;;
39098;SDS011;24844;52.380;7.018;2022-12-04T02:20:27;100.05;;;49.47;;
39098;SDS011;24844;52.380;7.018;2022-12-04T02:29:15;106.97;;;49.17;;
39098;SDS011;24844;52.380;7.018;2022-12-04T02:32:02;105.47;;;48.80;;
39098;SDS011;24844;52.380;7.018;2022-12-04T02:34:30;98.60;;;48.78;;
39098;SDS011;24844;52.380;7.018;2022-12-04T02:37:18;105.85;;;50.08;;
39098;SDS011;24844;52.380;7.018;2022-12-04T02:39:56;106.65;;;49.65;;
39098;SDS011;24844;52.380;7.018;2022-12-04T02:42:39;92.57;;;45.92;;
39098;SDS011;24844;52.380;7.018;2022-12-04T02:45:10;101.93;;;47.53;;
39098;SDS011;24844;52.380;7.018;2022-12-04T02:47:40;108.72;;;49.65;;
39098;SDS011;24844;52.380;7.018;2022-12-04T02:50:09;100.82;;;51.22;;
39098;SDS011;24844;52.380;7.018;2022-12-04T02:52:42;106.82;;;49.38;;
39098;SDS011;24844;52.380;7.018;2022-12-04T02:55:42;99.00;;;48.05;;
39098;SDS011;24844;52.380;7.018;2022-12-04T02:58:20;97.63;;;47.65;;
39098;SDS011;24844;52.380;7.018;2022-12-04T03:00:53;103.10;;;47.58;;
39098;SDS011;24844;52.380;7.018;2022-12-04T03:03:23;101.43;;;47.67;;
39098;SDS011;24844;52.380;7.018;2022-12-04T03:06:01;101.40;;;49.00;;
39098;SDS011;24844;52.380;7.018;2022-12-04T03:08:32;101.05;;;46.60;;
39098;SDS011;24844;52.380;7.018;2022-12-04T03:11:02;103.40;;;49.03;;
39098;SDS011;24844;52.380;7.018;2022-12-04T03:13:49;104.93;;;48.22;;
39098;SDS011;24844;52.380;7.018;2022-12-04T03:16:24;105.68;;;49.97;;
39098;SDS011;24844;52.380;7.018;2022-12-04T03:19:07;103.63;;;50.38;;
39098;SDS011;24844;52.380;7.018;2022-12-04T03:21:48;103.30;;;49.80;;
39098;SDS011;24844;52.380;7.018;2022-12-04T03:24:22;101.25;;;48.85;;
39098;SDS011;24844;52.380;7.018;2022-12-04T03:26:59;106.95;;;50.03;;
39098;SDS011;24844;52.380;7.018;2022-12-04T03:29:38;104.57;;;47.42;;
39098;SDS011;24844;52.380;7.018;2022-12-04T03:32:15;93.95;;;46.30;;
39098;SDS011;24844;52.380;7.018;2022-12-04T03:40:56;104.85;;;49.40;;
39098;SDS011;24844;52.380;7.018;2022-12-04T03:46:02;105.95;;;49.67;;
39098;SDS011;24844;52.380;7.018;2022-12-04T03:48:30;107.68;;;49.88;;
39098;SDS011;24844;52.380;7.018;2022-12-04T03:56:25;115.75;;;52.40;;
39098;SDS011;24844;52.380;7.018;2022-12-04T03:58:56;118.43;;;53.88;;
39098;SDS011;24844;52.380;7.018;2022-12-04T04:01:28;103.72;;;49.08;;
39098;SDS011;24844;52.380;7.018;2022-12-04T04:03:58;108.70;;;49.58;;
39098;SDS011;24844;52.380;7.018;2022-12-04T04:06:29;113.90;;;52.42;;
39098;SDS011;24844;52.380;7.018;2022-12-04T04:08:59;107.90;;;49.03;;
39098;SDS011;24844;52.380;7.018;2022-12-04T04:11:35;110.60;;;49.47;;
39098;SDS011;24844;52.380;7.018;2022-12-04T04:14:49;111.88;;;50.90;;
39098;SDS011;24844;52.380;7.018;2022-12-04T04:17:35;118.35;;;51.00;;
39098;SDS011;24844;52.380;7.018;2022-12-04T04:20:44;107.03;;;47.75;;
39098;SDS011;24844;52.380;7.018;2022-12-04T04:23:33;113.32;;;51.13;;
39098;SDS011;24844;52.380;7.018;2022-12-04T04:26:21;112.28;;;51.08;;
39098;SDS011;24844;52.380;7.018;2022-12-04T04:28:50;103.13;;;47.17;;
39098;SDS011;24844;52.380;7.018;2022-12-04T04:34:04;110.93;;;50.45;;
39098;SDS011;24844;52.380;7.018;2022-12-04T04:36:49;110.95;;;51.50;;
39098;SDS011;24844;52.380;7.018;2022-12-04T04:42:20;106.68;;;48.53;;
39098;SDS011;24844;52.380;7.018;2022-12-04T04:44:51;95.20;;;44.78;;
39098;SDS011;24844;52.380;7.018;2022-12-04T04:50:18;107.63;;;49.17;;
39098;SDS011;24844;52.380;7.018;2022-12-04T04:52:46;110.40;;;51.00;;
39098;SDS011;24844;52.380;7.018;2022-12-04T04:55:21;101.97;;;46.63;;
39098;SDS011;24844;52.380;7.018;2022-12-04T04:57:47;107.07;;;48.22;;
39098;SDS011;24844;52.380;7.018;2022-12-04T05:00:14;107.15;;;49.10;;
39098;SDS011;24844;52.380;7.018;2022-12-04T05:02:44;114.88;;;51.65;;
39098;SDS011;24844;52.380;7.018;2022-12-04T05:05:11;113.32;;;52.03;;
39098;SDS011;24844;52.380;7.018;2022-12-04T05:07:37;107.65;;;49.95;;
39098;SDS011;24844;52.380;7.018;2022-12-04T05:10:03;107.00;;;48.97;;
39098;SDS011;24844;52.380;7.018;2022-12-04T05:12:29;101.72;;;47.72;;
39098;SDS011;24844;52.380;7.018;2022-12-04T05:14:54;106.90;;;49.38;;
39098;SDS011;24844;52.380;7.018;2022-12-04T05:17:20;104.00;;;48.83;;
39098;SDS011;24844;52.380;7.018;2022-12-04T05:19:46;100.18;;;49.63;;
39098;SDS011;24844;52.380;7.018;2022-12-04T05:22:17;103.88;;;46.78;;
39098;SDS011;24844;52.380;7.018;2022-12-04T05:24:48;94.05;;;44.47;;
39098;SDS011;24844;52.380;7.018;2022-12-04T05:27:13;107.90;;;51.05;;
39098;SDS011;24844;52.380;7.018;2022-12-04T05:29:39;106.15;;;46.75;;
39098;SDS011;24844;52.380;7.018;2022-12-04T05:32:05;103.28;;;49.33;;
39098;SDS011;24844;52.380;7.018;2022-12-04T05:34:30;104.70;;;47.10;;
39098;SDS011;24844;52.380;7.018;2022-12-04T05:36:56;103.72;;;48.72;;
39098;SDS011;24844;52.380;7.018;2022-12-04T05:39:21;100.75;;;47.35;;
39098;SDS011;24844;52.380;7.018;2022-12-04T05:41:47;103.97;;;49.38;;
39098;SDS011;24844;52.380;7.018;2022-12-04T05:44:12;105.40;;;48.40;;
39098;SDS011;24844;52.380;7.018;2022-12-04T05:46:38;98.53;;;47.53;;
39098;SDS011;24844;52.380;7.018;2022-12-04T05:49:03;95.55;;;44.95;;
39098;SDS011;24844;52.380;7.018;2022-12-04T05:51:29;97.38;;;45.45;;
39098;SDS011;24844;52.380;7.018;2022-12-04T05:53:55;91.43;;;46.10;;
39098;SDS011;24844;52.380;7.018;2022-12-04T05:56:20;105.65;;;48.58;;
39098;SDS011;24844;52.380;7.018;2022-12-04T05:58:46;100.68;;;48.53;;
39098;SDS011;24844;52.380;7.018;2022-12-04T06:01:19;106.72;;;48.63;;
39098;SDS011;24844;52.380;7.018;2022-12-04T06:03:47;98.80;;;46.47;;
39098;SDS011;24844;52.380;7.018;2022-12-04T06:06:16;105.95;;;48.25;;
39098;SDS011;24844;52.380;7.018;2022-12-04T06:08:43;94.05;;;43.20;;
39098;SDS011;24844;52.380;7.018;2022-12-04T06:11:10;104.25;;;47.63;;
39098;SDS011;24844;52.380;7.018;2022-12-04T06:13:38;122.15;;;47.28;;
39098;SDS011;24844;52.380;7.018;2022-12-04T06:16:06;102.93;;;46.58;;
39098;SDS011;24844;52.380;7.018;2022-12-04T06:18:36;100.22;;;46.95;;
39098;SDS011;24844;52.380;7.018;2022-12-04T06:21:02;98.78;;;46.35;;
39098;SDS011;24844;52.380;7.018;2022-12-04T06:23:28;97.80;;;45.97;;
39098;SDS011;24844;52.380;7.018;2022-12-04T06:25:53;101.35;;;49.78;;
39098;SDS011;24844;52.380;7.018;2022-12-04T06:28:19;97.93;;;47.88;;
39098;SDS011;24844;52.380;7.018;2022-12-04T06:30:44;102.85;;;46.97;;
39098;SDS011;24844;52.380;7.018;2022-12-04T06:33:10;95.63;;;44.70;;
39098;SDS011;24844;52.380;7.018;2022-12-04T06:35:35;98.05;;;45.30;;
39098;SDS011;24844;52.380;7.018;2022-12-04T06:38:01;92.45;;;43.50;;
39098;SDS011;24844;52.380;7.018;2022-12-04T06:40:26;98.18;;;45.95;;
39098;SDS011;24844;52.380;7.018;2022-12-04T06:42:52;96.40;;;44.20;;
39098;SDS011;24844;52.380;7.018;2022-12-04T06:45:17;94.15;;;45.78;;
39098;SDS011;24844;52.380;7.018;2022-12-04T06:47:43;96.63;;;44.60;;
39098;SDS011;24844;52.380;7.018;2022-12-04T06:50:08;95.47;;;46.90;;
39098;SDS011;24844;52.380;7.018;2022-12-04T06:52:34;98.85;;;43.05;;
39098;SDS011;24844;52.380;7.018;2022-12-04T06:55:00;92.10;;;42.42;;
39098;SDS011;24844;52.380;7.018;2022-12-04T06:57:25;89.88;;;42.78;;
39098;SDS011;24844;52.380;7.018;2022-12-04T06:59:51;83.63;;;39.17;;
39098;SDS011;24844;52.380;7.018;2022-12-04T07:02:16;96.15;;;44.30;;
39098;SDS011;24844;52.380;7.018;2022-12-04T07:04:42;92.78;;;43.25;;
39098;SDS011;24844;52.380;7.018;2022-12-04T07:07:08;90.18;;;41.90;;
39098;SDS011;24844;52.380;7.018;2022-12-04T07:09:35;82.10;;;39.72;;
39098;SDS011;24844;52.380;7.018;2022-12-04T07:12:00;84.63;;;38.83;;
39098;SDS011;24844;52.380;7.018;2022-12-04T07:14:26;90.05;;;39.33;;
39098;SDS011;24844;52.380;7.018;2022-12-04T07:16:51;79.47;;;36.00;;
39098;SDS011;24844;52.380;7.018;2022-12-04T07:19:17;79.53;;;36.42;;
39098;SDS011;24844;52.380;7.018;2022-12-04T07:21:42;74.65;;;35.80;;
39098;SDS011;24844;52.380;7.018;2022-12-04T07:24:10;65.18;;;32.65;;
39098;SDS011;24844;52.380;7.018;2022-12-04T07:26:39;64.55;;;32.45;;
39098;SDS011;24844;52.380;7.018;2022-12-04T07:29:05;63.65;;;30.95;;
39098;SDS011;24844;52.380;7.018;2022-12-04T07:31:30;65.85;;;31.38;;
39098;SDS011;24844;52.380;7.018;2022-12-04T07:33:56;66.72;;;32.20;;
39098;SDS011;24844;52.380;7.018;2022-12-04T07:36:23;58.90;;;29.50;;
39098;SDS011;24844;52.380;7.018;2022-12-04T07:38:49;58.50;;;28.08;;
39098;SDS011;24844;52.380;7.018;2022-12-04T07:41:15;56.30;;;24.75;;
39098;SDS011;24844;52.380;7.018;2022-12-04T07:43:41;60.75;;;27.80;;
39098;SDS011;24844;52.380;7.018;2022-12-04T07:46:11;48.28;;;24.38;;
39098;SDS011;24844;52.380;7.018;2022-12-04T07:48:39;49.60;;;25.10;;
39098;SDS011;24844;52.380;7.018;2022-12-04T07:51:06;55.47;;;24.13;;
39098;SDS011;24844;52.380;7.018;2022-12-04T07:53:33;50.17;;;24.85;;
39098;SDS011;24844;52.380;7.018;2022-12-04T07:55:59;38.13;;;20.15;;
39098;SDS011;24844;52.380;7.018;2022-12-04T07:58:25;44.85;;;23.63;;
39098;SDS011;24844;52.380;7.018;2022-12-04T08:00:51;45.38;;;20.95;;
39098;SDS011;24844;52.380;7.018;2022-12-04T08:03:16;109.50;;;24.95;;
39098;SDS011;24844;52.380;7.018;2022-12-04T08:05:42;113.53;;;28.92;;
39098;SDS011;24844;52.380;7.018;2022-12-04T08:08:07;44.85;;;24.08;;
39098;SDS011;24844;52.380;7.018;2022-12-04T08:10:33;50.13;;;23.60;;
39098;SDS011;24844;52.380;7.018;2022-12-04T08:12:58;54.00;;;24.95;;
39098;SDS011;24844;52.380;7.018;2022-12-04T08:15:24;44.42;;;21.90;;
39098;SDS011;24844;52.380;7.018;2022-12-04T08:17:49;49.63;;;22.63;;
39098;SDS011;24844;52.380;7.018;2022-12-04T08:20:15;44.20;;;22.65;;
39098;SDS011;24844;52.380;7.018;2022-12-04T08:22:40;48.78;;;24.60;;
39098;SDS011;24844;52.380;7.018;2022-12-04T08:25:06;46.38;;;22.15;;
39098;SDS011;24844;52.380;7.018;2022-12-04T08:27:32;44.40;;;22.88;;
39098;SDS011;24844;52.380;7.018;2022-12-04T08:29:58;43.80;;;22.75;;
39098;SDS011;24844;52.380;7.018;2022-12-04T08:32:23;45.22;;;20.23;;
39098;SDS011;24844;52.380;7.018;2022-12-04T08:34:50;41.42;;;21.15;;
39098;SDS011;24844;52.380;7.018;2022-12-04T08:37:16;44.10;;;23.10;;
39098;SDS011;24844;52.380;7.018;2022-12-04T08:39:42;42.35;;;22.40;;
39098;SDS011;24844;52.380;7.018;2022-12-04T08:42:07;41.95;;;21.75;;
39098;SDS011;24844;52.380;7.018;2022-12-04T08:44:33;46.63;;;24.85;;
39098;SDS011;24844;52.380;7.018;2022-12-04T08:46:58;45.67;;;21.98;;
39098;SDS011;24844;52.380;7.018;2022-12-04T08:49:24;367.75;;;35.35;;
39098;SDS011;24844;52.380;7.018;2022-12-04T08:51:49;50.05;;;24.77;;
39098;SDS011;24844;52.380;7.018;2022-12-04T08:54:15;39.47;;;19.92;;
39098;SDS011;24844;52.380;7.018;2022-12-04T08:56:40;45.08;;;24.10;;
39098;SDS011;24844;52.380;7.018;2022-12-04T08:59:08;45.20;;;23.40;;
39098;SDS011;24844;52.380;7.018;2022-12-04T09:01:36;46.25;;;23.33;;
39098;SDS011;24844;52.380;7.018;2022-12-04T09:04:02;44.33;;;23.00;;
39098;SDS011;24844;52.380;7.018;2022-12-04T09:06:27;44.83;;;23.10;;
39098;SDS011;24844;52.380;7.018;2022-12-04T09:08:54;44.63;;;23.13;;
39098;SDS011;24844;52.380;7.018;2022-12-04T09:11:22;45.65;;;22.58;;
39098;SDS011;24844;52.380;7.018;2022-12-04T09:16:16;42.47;;;22.88;;
39098;SDS011;24844;52.380;7.018;2022-12-04T09:18:43;50.00;;;23.98;;
39098;SDS011;24844;52.380;7.018;2022-12-04T09:21:10;45.17;;;24.15;;
39098;SDS011;24844;52.380;7.018;2022-12-04T09:23:38;47.88;;;23.70;;
39098;SDS011;24844;52.380;7.018;2022-12-04T09:26:05;44.67;;;22.88;;
39098;SDS011;24844;52.380;7.018;2022-12-04T09:28:39;47.22;;;24.88;;
39098;SDS011;24844;52.380;7.018;2022-12-04T09:31:05;45.30;;;23.88;;
39098;SDS011;24844;52.380;7.018;2022-12-04T09:33:31;45.92;;;23.42;;
39098;SDS011;24844;52.380;7.018;2022-12-04T09:35:57;49.78;;;25.30;;
39098;SDS011;24844;52.380;7.018;2022-12-04T09:38:23;41.80;;;21.92;;
39098;SDS011;24844;52.380;7.018;2022-12-04T09:40:56;47.00;;;23.42;;
39098;SDS011;24844;52.380;7.018;2022-12-04T09:44:14;48.97;;;24.10;;
39098;SDS011;24844;52.380;7.018;2022-12-04T09:46:36;48.53;;;25.52;;
39098;SDS011;24844;52.380;7.018;2022-12-04T09:49:06;47.25;;;23.70;;
39098;SDS011;24844;52.380;7.018;2022-12-04T09:51:38;58.20;;;26.75;;
39098;SDS011;24844;52.380;7.018;2022-12-04T09:54:08;52.88;;;26.27;;
39098;SDS011;24844;52.380;7.018;2022-12-04T09:56:38;50.10;;;26.52;;
39098;SDS011;24844;52.380;7.018;2022-12-04T09:59:07;48.85;;;27.33;;
39098;SDS011;24844;52.380;7.018;2022-12-04T10:04:44;62.25;;;30.10;;
39098;SDS011;24844;52.380;7.018;2022-12-04T10:07:13;60.40;;;30.20;;
39098;SDS011;24844;52.380;7.018;2022-12-04T10:09:48;61.25;;;29.55;;
39098;SDS011;24844;52.380;7.018;2022-12-04T10:15:27;64.60;;;31.50;;
39098;SDS011;24844;52.380;7.018;2022-12-04T10:21:04;73.95;;;33.95;;
39098;SDS011;24844;52.380;7.018;2022-12-04T10:23:52;73.53;;;34.70;;
39098;SDS011;24844;52.380;7.018;2022-12-04T10:26:31;77.85;;;36.25;;
39098;SDS011;24844;52.380;7.018;2022-12-04T10:29:05;79.93;;;36.63;;
39098;SDS011;24844;52.380;7.018;2022-12-04T10:31:32;84.93;;;38.25;;
39098;SDS011;24844;52.380;7.018;2022-12-04T10:34:11;77.20;;;33.97;;
39098;SDS011;24844;52.380;7.018;2022-12-04T10:36:48;82.28;;;38.55;;
39098;SDS011;24844;52.380;7.018;2022-12-04T10:39:25;84.25;;;39.35;;
39098;SDS011;24844;52.380;7.018;2022-12-04T10:42:18;85.68;;;39.25;;
39098;SDS011;24844;52.380;7.018;2022-12-04T10:44:51;87.47;;;40.17;;
39098;SDS011;24844;52.380;7.018;2022-12-04T10:47:17;88.30;;;41.05;;
39098;SDS011;24844;52.380;7.018;2022-12-04T10:49:43;87.40;;;41.35;;
39098;SDS011;24844;52.380;7.018;2022-12-04T10:52:12;85.35;;;40.35;;
39098;SDS011;24844;52.380;7.018;2022-12-04T10:57:12;79.40;;;34.47;;
39098;SDS011;24844;52.380;7.018;2022-12-04T11:00:00;78.68;;;39.70;;
39098;SDS011;24844;52.380;7.018;2022-12-04T11:02:28;85.28;;;41.53;;
39098;SDS011;24844;52.380;7.018;2022-12-04T11:04:58;87.32;;;41.72;;
39098;SDS011;24844;52.380;7.018;2022-12-04T11:07:32;84.95;;;39.85;;
39098;SDS011;24844;52.380;7.018;2022-12-04T11:10:02;81.90;;;40.30;;
39098;SDS011;24844;52.380;7.018;2022-12-04T11:12:30;85.82;;;41.67;;
39098;SDS011;24844;52.380;7.018;2022-12-04T11:15:11;78.25;;;39.50;;
39098;SDS011;24844;52.380;7.018;2022-12-04T11:17:38;76.25;;;38.85;;
39098;SDS011;24844;52.380;7.018;2022-12-04T11:20:06;78.05;;;38.25;;
39098;SDS011;24844;52.380;7.018;2022-12-04T11:22:48;79.78;;;39.53;;
39098;SDS011;24844;52.380;7.018;2022-12-04T11:25:16;72.63;;;37.20;;
39098;SDS011;24844;52.380;7.018;2022-12-04T11:27:44;75.65;;;37.70;;
39098;SDS011;24844;52.380;7.018;2022-12-04T11:30:13;84.55;;;35.58;;
39098;SDS011;24844;52.380;7.018;2022-12-04T11:32:44;75.97;;;37.47;;
39098;SDS011;24844;52.380;7.018;2022-12-04T11:35:15;73.47;;;37.25;;
39098;SDS011;24844;52.380;7.018;2022-12-04T11:37:58;69.63;;;32.95;;
39098;SDS011;24844;52.380;7.018;2022-12-04T11:40:36;80.45;;;38.97;;
39098;SDS011;24844;52.380;7.018;2022-12-04T11:43:11;76.22;;;37.80;;
39098;SDS011;24844;52.380;7.018;2022-12-04T11:45:38;68.13;;;36.10;;
39098;SDS011;24844;52.380;7.018;2022-12-04T11:48:15;74.70;;;36.65;;
39098;SDS011;24844;52.380;7.018;2022-12-04T11:53:40;76.20;;;38.08;;
39098;SDS011;24844;52.380;7.018;2022-12-04T12:09:35;71.25;;;37.10;;
39098;SDS011;24844;52.380;7.018;2022-12-04T12:12:17;71.70;;;36.92;;
39098;SDS011;24844;52.380;7.018;2022-12-04T12:14:48;75.00;;;38.72;;
39098;SDS011;24844;52.380;7.018;2022-12-04T12:20:00;68.15;;;35.97;;
39098;SDS011;24844;52.380;7.018;2022-12-04T12:27:38;74.65;;;39.35;;
39098;SDS011;24844;52.380;7.018;2022-12-04T12:30:28;74.82;;;39.03;;
39098;SDS011;24844;52.380;7.018;2022-12-04T12:33:08;78.72;;;40.08;;
39098;SDS011;24844;52.380;7.018;2022-12-04T12:36:07;77.47;;;39.25;;
39098;SDS011;24844;52.380;7.018;2022-12-04T12:38:53;77.82;;;42.13;;
39098;SDS011;24844;52.380;7.018;2022-12-04T12:41:22;77.97;;;41.60;;
39098;SDS011;24844;52.380;7.018;2022-12-04T12:44:03;72.93;;;37.90;;
39098;SDS011;24844;52.380;7.018;2022-12-04T12:46:51;78.32;;;39.95;;
39098;SDS011;24844;52.380;7.018;2022-12-04T12:49:28;74.30;;;38.22;;
39098;SDS011;24844;52.380;7.018;2022-12-04T12:55:30;63.65;;;35.88;;
39098;SDS011;24844;52.380;7.018;2022-12-04T12:58:11;69.50;;;36.40;;
39098;SDS011;24844;52.380;7.018;2022-12-04T13:00:46;64.32;;;33.83;;
39098;SDS011;24844;52.380;7.018;2022-12-04T13:06:11;65.63;;;34.78;;
39098;SDS011;24844;52.380;7.018;2022-12-04T13:08:51;65.68;;;34.88;;
39098;SDS011;24844;52.380;7.018;2022-12-04T13:11:24;63.58;;;34.90;;
39098;SDS011;24844;52.380;7.018;2022-12-04T13:13:53;63.35;;;35.30;;
39098;SDS011;24844;52.380;7.018;2022-12-04T13:16:25;64.25;;;34.25;;
39098;SDS011;24844;52.380;7.018;2022-12-04T13:21:45;67.25;;;35.10;;
39098;SDS011;24844;52.380;7.018;2022-12-04T13:27:04;61.67;;;33.83;;
39098;SDS011;24844;52.380;7.018;2022-12-04T13:29:36;59.72;;;34.95;;
39098;SDS011;24844;52.380;7.018;2022-12-04T13:45:45;56.88;;;31.17;;
39098;SDS011;24844;52.380;7.018;2022-12-04T13:48:13;61.28;;;32.50;;
39098;SDS011;24844;52.380;7.018;2022-12-04T13:50:59;59.30;;;31.40;;
39098;SDS011;24844;52.380;7.018;2022-12-04T13:53:58;66.80;;;34.60;;
39098;SDS011;24844;52.380;7.018;2022-12-04T13:56:27;59.17;;;33.47;;
39098;SDS011;24844;52.380;7.018;2022-12-04T13:58:58;62.80;;;33.63;;
39098;SDS011;24844;52.380;7.018;2022-12-04T14:01:49;63.47;;;34.35;;
39098;SDS011;24844;52.380;7.018;2022-12-04T14:09:56;71.43;;;36.50;;
39098;SDS011;24844;52.380;7.018;2022-12-04T14:12:30;69.78;;;36.05;;
39098;SDS011;24844;52.380;7.018;2022-12-04T14:15:03;70.47;;;35.80;;
39098;SDS011;24844;52.380;7.018;2022-12-04T14:17:35;68.25;;;36.30;;
39098;SDS011;24844;52.380;7.018;2022-12-04T14:20:04;73.68;;;37.67;;
39098;SDS011;24844;52.380;7.018;2022-12-04T14:22:48;72.97;;;38.42;;
39098;SDS011;24844;52.380;7.018;2022-12-04T14:30:19;75.38;;;39.15;;
39098;SDS011;24844;52.380;7.018;2022-12-04T14:32:54;75.88;;;39.03;;
39098;SDS011;24844;52.380;7.018;2022-12-04T14:35:29;75.28;;;38.75;;
39098;SDS011;24844;52.380;7.018;2022-12-04T14:37:57;75.35;;;36.05;;
39098;SDS011;24844;52.380;7.018;2022-12-04T14:40:26;72.35;;;35.88;;
39098;SDS011;24844;52.380;7.018;2022-12-04T14:42:54;75.78;;;38.75;;
39098;SDS011;24844;52.380;7.018;2022-12-04T14:45:24;75.93;;;37.10;;
39098;SDS011;24844;52.380;7.018;2022-12-04T14:48:16;76.13;;;37.85;;
39098;SDS011;24844;52.380;7.018;2022-12-04T14:50:52;79.00;;;40.60;;
39098;SDS011;24844;52.380;7.018;2022-12-04T14:53:39;73.00;;;37.58;;
39098;SDS011;24844;52.380;7.018;2022-12-04T14:56:39;72.50;;;37.72;;
39098;SDS011;24844;52.380;7.018;2022-12-04T14:59:42;67.35;;;35.22;;
39098;SDS011;24844;52.380;7.018;2022-12-04T15:02:11;73.13;;;36.58;;
39098;SDS011;24844;52.380;7.018;2022-12-04T15:04:41;74.10;;;37.92;;
39098;SDS011;24844;52.380;7.018;2022-12-04T15:07:11;74.95;;;37.70;;
39098;SDS011;24844;52.380;7.018;2022-12-04T15:09:49;73.22;;;37.83;;
39098;SDS011;24844;52.380;7.018;2022-12-04T15:12:41;78.28;;;37.45;;
39098;SDS011;24844;52.380;7.018;2022-12-04T15:18:08;77.78;;;37.00;;
39098;SDS011;24844;52.380;7.018;2022-12-04T15:23:27;77.00;;;39.17;;
39098;SDS011;24844;52.380;7.018;2022-12-04T15:26:10;74.60;;;38.45;;
39098;SDS011;24844;52.380;7.018;2022-12-04T15:31:13;79.20;;;40.45;;
39098;SDS011;24844;52.380;7.018;2022-12-04T15:33:42;81.22;;;38.88;;
39098;SDS011;24844;52.380;7.018;2022-12-04T15:39:20;82.07;;;38.78;;
39098;SDS011;24844;52.380;7.018;2022-12-04T15:41:51;80.80;;;39.60;;
39098;SDS011;24844;52.380;7.018;2022-12-04T15:44:28;78.78;;;39.88;;
39098;SDS011;24844;52.380;7.018;2022-12-04T15:46:56;84.25;;;39.05;;
39098;SDS011;24844;52.380;7.018;2022-12-04T15:49:28;86.15;;;41.50;;
39098;SDS011;24844;52.380;7.018;2022-12-04T15:57:25;84.65;;;41.63;;
39098;SDS011;24844;52.380;7.018;2022-12-04T15:59:53;83.63;;;40.20;;
39098;SDS011;24844;52.380;7.018;2022-12-04T16:02:22;89.25;;;40.83;;
39098;SDS011;24844;52.380;7.018;2022-12-04T16:04:52;92.35;;;43.03;;
39098;SDS011;24844;52.380;7.018;2022-12-04T16:07:25;92.72;;;42.25;;
39098;SDS011;24844;52.380;7.018;2022-12-04T16:09:57;88.18;;;41.67;;
39098;SDS011;24844;52.380;7.018;2022-12-04T16:12:25;80.50;;;38.55;;
